sensor_id;sensor_type;location;lat;lon;timestamp;P1;durP1;ratioP1;P2;durP2;ratioP2
52438;SDS011;38359;53.150;6.504;2022-11-22T00:02:45;57.58;;;24.17;;
52438;SDS011;38359;53.150;6.504;2022-11-22T00:13:11;47.53;;;21.90;;
52438;SDS011;38359;53.150;6.504;2022-11-22T00:23:37;43.08;;;21.58;;
52438;SDS011;38359;53.150;6.504;2022-11-22T00:34:03;55.58;;;24.60;;
52438;SDS011;38359;53.150;6.504;2022-11-22T00:44:29;52.20;;;24.00;;
52438;SDS011;38359;53.150;6.504;2022-11-22T00:54:54;56.78;;;24.70;;
52438;SDS011;38359;53.150;6.504;2022-11-22T01:05:20;53.17;;;24.35;;
52438;SDS011;38359;53.150;6.504;2022-11-22T01:15:46;63.55;;;26.05;;
52438;SDS011;38359;53.150;6.504;2022-11-22T01:26:11;56.15;;;25.23;;
52438;SDS011;38359;53.150;6.504;2022-11-22T01:36:37;56.53;;;25.98;;
52438;SDS011;38359;53.150;6.504;2022-11-22T01:47:04;66.28;;;27.25;;
52438;SDS011;38359;53.150;6.504;2022-11-22T01:57:44;66.60;;;29.33;;
52438;SDS011;38359;53.150;6.504;2022-11-22T02:09:12;66.70;;;27.65;;
52438;SDS011;38359;53.150;6.504;2022-11-22T02:19:52;62.42;;;28.08;;
52438;SDS011;38359;53.150;6.504;2022-11-22T02:30:13;60.20;;;27.50;;
52438;SDS011;38359;53.150;6.504;2022-11-22T02:40:44;62.45;;;29.15;;
52438;SDS011;38359;53.150;6.504;2022-11-22T02:51:24;66.63;;;28.67;;
52438;SDS011;38359;53.150;6.504;2022-11-22T03:01:50;56.30;;;26.98;;
52438;SDS011;38359;53.150;6.504;2022-11-22T03:12:16;71.28;;;29.77;;
52438;SDS011;38359;53.150;6.504;2022-11-22T03:22:42;67.25;;;28.85;;
52438;SDS011;38359;53.150;6.504;2022-11-22T03:33:07;56.80;;;27.10;;
52438;SDS011;38359;53.150;6.504;2022-11-22T03:43:34;70.82;;;29.77;;
52438;SDS011;38359;53.150;6.504;2022-11-22T03:53:59;58.80;;;27.27;;
52438;SDS011;38359;53.150;6.504;2022-11-22T04:04:25;61.17;;;27.73;;
52438;SDS011;38359;53.150;6.504;2022-11-22T04:14:51;57.28;;;27.25;;
52438;SDS011;38359;53.150;6.504;2022-11-22T04:25:32;59.75;;;27.92;;
52438;SDS011;38359;53.150;6.504;2022-11-22T04:35:59;61.90;;;26.65;;
52438;SDS011;38359;53.150;6.504;2022-11-22T04:46:25;65.13;;;29.10;;
52438;SDS011;38359;53.150;6.504;2022-11-22T04:56:51;61.97;;;27.42;;
52438;SDS011;38359;53.150;6.504;2022-11-22T05:07:17;61.70;;;28.83;;
52438;SDS011;38359;53.150;6.504;2022-11-22T05:17:42;63.00;;;29.23;;
52438;SDS011;38359;53.150;6.504;2022-11-22T05:28:08;74.57;;;30.02;;
52438;SDS011;38359;53.150;6.504;2022-11-22T05:38:34;67.00;;;29.48;;
52438;SDS011;38359;53.150;6.504;2022-11-22T05:49:04;62.10;;;30.38;;
52438;SDS011;38359;53.150;6.504;2022-11-22T05:59:30;74.93;;;30.98;;
52438;SDS011;38359;53.150;6.504;2022-11-22T06:09:56;74.60;;;30.42;;
52438;SDS011;38359;53.150;6.504;2022-11-22T06:20:21;61.35;;;31.00;;
52438;SDS011;38359;53.150;6.504;2022-11-22T06:30:47;81.63;;;35.13;;
52438;SDS011;38359;53.150;6.504;2022-11-22T06:41:17;75.07;;;31.42;;
52438;SDS011;38359;53.150;6.504;2022-11-22T06:51:45;66.50;;;29.25;;
52438;SDS011;38359;53.150;6.504;2022-11-22T07:02:11;69.82;;;29.20;;
52438;SDS011;38359;53.150;6.504;2022-11-22T07:12:37;60.90;;;28.60;;
52438;SDS011;38359;53.150;6.504;2022-11-22T07:23:03;63.15;;;27.70;;
52438;SDS011;38359;53.150;6.504;2022-11-22T07:33:29;56.38;;;24.92;;
52438;SDS011;38359;53.150;6.504;2022-11-22T07:43:56;54.58;;;21.95;;
52438;SDS011;38359;53.150;6.504;2022-11-22T07:54:22;34.03;;;16.27;;
52438;SDS011;38359;53.150;6.504;2022-11-22T08:04:47;38.67;;;12.68;;
52438;SDS011;38359;53.150;6.504;2022-11-22T08:15:14;48.25;;;14.18;;
52438;SDS011;38359;53.150;6.504;2022-11-22T08:25:40;35.17;;;11.65;;
52438;SDS011;38359;53.150;6.504;2022-11-22T08:36:06;33.78;;;9.45;;
52438;SDS011;38359;53.150;6.504;2022-11-22T08:46:32;30.10;;;9.13;;
52438;SDS011;38359;53.150;6.504;2022-11-22T08:56:58;25.90;;;7.20;;
52438;SDS011;38359;53.150;6.504;2022-11-22T09:07:24;23.85;;;6.82;;
52438;SDS011;38359;53.150;6.504;2022-11-22T09:17:49;23.33;;;5.70;;
52438;SDS011;38359;53.150;6.504;2022-11-22T09:28:15;23.77;;;5.22;;
52438;SDS011;38359;53.150;6.504;2022-11-22T09:38:41;20.88;;;5.50;;
52438;SDS011;38359;53.150;6.504;2022-11-22T09:49:12;22.63;;;4.85;;
52438;SDS011;38359;53.150;6.504;2022-11-22T10:00:36;21.08;;;4.13;;
52438;SDS011;38359;53.150;6.504;2022-11-22T10:10:52;17.70;;;3.42;;
52438;SDS011;38359;53.150;6.504;2022-11-22T10:21:19;18.92;;;3.58;;
52438;SDS011;38359;53.150;6.504;2022-11-22T10:31:57;12.63;;;3.17;;
52438;SDS011;38359;53.150;6.504;2022-11-22T10:53:53;12.15;;;2.97;;
52438;SDS011;38359;53.150;6.504;2022-11-22T11:04:41;18.63;;;2.50;;
52438;SDS011;38359;53.150;6.504;2022-11-22T11:15:42;17.02;;;3.45;;
52438;SDS011;38359;53.150;6.504;2022-11-22T11:26:26;18.77;;;2.75;;
52438;SDS011;38359;53.150;6.504;2022-11-22T11:36:57;14.77;;;2.25;;
52438;SDS011;38359;53.150;6.504;2022-11-22T11:47:31;15.65;;;2.33;;
52438;SDS011;38359;53.150;6.504;2022-11-22T12:08:29;17.30;;;2.95;;
52438;SDS011;38359;53.150;6.504;2022-11-22T12:19:17;12.43;;;2.38;;
52438;SDS011;38359;53.150;6.504;2022-11-22T12:30:00;14.90;;;2.60;;
52438;SDS011;38359;53.150;6.504;2022-11-22T12:40:36;18.55;;;2.72;;
52438;SDS011;38359;53.150;6.504;2022-11-22T12:51:08;8.65;;;2.05;;
52438;SDS011;38359;53.150;6.504;2022-11-22T13:01:44;11.48;;;2.03;;
52438;SDS011;38359;53.150;6.504;2022-11-22T13:12:20;11.75;;;2.25;;
52438;SDS011;38359;53.150;6.504;2022-11-22T13:22:58;11.60;;;2.17;;
52438;SDS011;38359;53.150;6.504;2022-11-22T13:33:54;10.95;;;1.90;;
52438;SDS011;38359;53.150;6.504;2022-11-22T13:54:59;14.25;;;2.15;;
52438;SDS011;38359;53.150;6.504;2022-11-22T14:05:58;11.75;;;2.13;;
52438;SDS011;38359;53.150;6.504;2022-11-22T14:16:31;8.23;;;2.03;;
52438;SDS011;38359;53.150;6.504;2022-11-22T14:27:27;10.63;;;1.67;;
52438;SDS011;38359;53.150;6.504;2022-11-22T14:48:52;5.72;;;1.65;;
52438;SDS011;38359;53.150;6.504;2022-11-22T14:59:38;12.93;;;3.33;;
52438;SDS011;38359;53.150;6.504;2022-11-22T15:21:22;11.48;;;1.98;;
52438;SDS011;38359;53.150;6.504;2022-11-22T15:31:52;7.85;;;2.33;;
52438;SDS011;38359;53.150;6.504;2022-11-22T15:42:18;8.77;;;1.63;;
52438;SDS011;38359;53.150;6.504;2022-11-22T15:52:49;11.52;;;2.08;;
52438;SDS011;38359;53.150;6.504;2022-11-22T16:03:21;12.98;;;2.47;;
52438;SDS011;38359;53.150;6.504;2022-11-22T16:13:50;9.20;;;1.80;;
52438;SDS011;38359;53.150;6.504;2022-11-22T16:24:16;11.98;;;2.05;;
52438;SDS011;38359;53.150;6.504;2022-11-22T16:34:42;9.32;;;1.98;;
52438;SDS011;38359;53.150;6.504;2022-11-22T16:45:13;7.97;;;1.98;;
52438;SDS011;38359;53.150;6.504;2022-11-22T17:06:11;10.18;;;2.13;;
52438;SDS011;38359;53.150;6.504;2022-11-22T17:16:43;10.05;;;1.98;;
52438;SDS011;38359;53.150;6.504;2022-11-22T17:27:11;7.90;;;1.90;;
52438;SDS011;38359;53.150;6.504;2022-11-22T17:37:40;8.10;;;1.55;;
52438;SDS011;38359;53.150;6.504;2022-11-22T17:48:06;9.50;;;2.05;;
52438;SDS011;38359;53.150;6.504;2022-11-22T17:58:32;10.57;;;2.45;;
52438;SDS011;38359;53.150;6.504;2022-11-22T18:08:58;13.48;;;2.92;;
52438;SDS011;38359;53.150;6.504;2022-11-22T18:19:24;6.47;;;1.95;;
52438;SDS011;38359;53.150;6.504;2022-11-22T18:29:50;20.13;;;5.43;;
52438;SDS011;38359;53.150;6.504;2022-11-22T18:40:16;13.65;;;5.82;;
52438;SDS011;38359;53.150;6.504;2022-11-22T18:50:42;9.40;;;1.98;;
52438;SDS011;38359;53.150;6.504;2022-11-22T19:01:14;8.85;;;2.10;;
52438;SDS011;38359;53.150;6.504;2022-11-22T19:11:43;11.95;;;2.17;;
52438;SDS011;38359;53.150;6.504;2022-11-22T19:22:09;4.97;;;1.73;;
52438;SDS011;38359;53.150;6.504;2022-11-22T19:32:34;7.60;;;2.33;;
52438;SDS011;38359;53.150;6.504;2022-11-22T19:43:00;12.07;;;2.65;;
52438;SDS011;38359;53.150;6.504;2022-11-22T19:53:27;9.10;;;2.40;;
52438;SDS011;38359;53.150;6.504;2022-11-22T20:03:53;10.35;;;3.20;;
52438;SDS011;38359;53.150;6.504;2022-11-22T20:14:25;6.60;;;4.05;;
52438;SDS011;38359;53.150;6.504;2022-11-22T20:24:51;11.20;;;5.47;;
52438;SDS011;38359;53.150;6.504;2022-11-22T20:35:16;9.10;;;4.80;;
52438;SDS011;38359;53.150;6.504;2022-11-22T20:45:42;14.25;;;5.05;;
52438;SDS011;38359;53.150;6.504;2022-11-22T20:56:10;14.02;;;6.18;;
52438;SDS011;38359;53.150;6.504;2022-11-22T21:06:36;13.75;;;7.65;;
52438;SDS011;38359;53.150;6.504;2022-11-22T21:17:02;19.63;;;10.60;;
52438;SDS011;38359;53.150;6.504;2022-11-22T21:27:28;18.65;;;12.18;;
52438;SDS011;38359;53.150;6.504;2022-11-22T21:37:54;19.40;;;12.48;;
52438;SDS011;38359;53.150;6.504;2022-11-22T21:48:20;24.88;;;13.75;;
52438;SDS011;38359;53.150;6.504;2022-11-22T21:58:48;22.77;;;15.45;;
52438;SDS011;38359;53.150;6.504;2022-11-22T22:09:13;29.80;;;16.48;;
52438;SDS011;38359;53.150;6.504;2022-11-22T22:19:39;20.45;;;15.07;;
52438;SDS011;38359;53.150;6.504;2022-11-22T22:30:06;23.38;;;15.45;;
52438;SDS011;38359;53.150;6.504;2022-11-22T22:40:33;30.25;;;17.38;;
52438;SDS011;38359;53.150;6.504;2022-11-22T22:51:10;29.25;;;17.52;;
52438;SDS011;38359;53.150;6.504;2022-11-22T23:02:02;32.40;;;21.30;;
52438;SDS011;38359;53.150;6.504;2022-11-22T23:12:28;32.08;;;20.25;;
52438;SDS011;38359;53.150;6.504;2022-11-22T23:22:54;31.33;;;22.02;;
52438;SDS011;38359;53.150;6.504;2022-11-22T23:33:20;43.72;;;23.48;;
52438;SDS011;38359;53.150;6.504;2022-11-22T23:43:46;40.95;;;25.15;;
52438;SDS011;38359;53.150;6.504;2022-11-22T23:54:17;33.40;;;22.83;;
